createdAt,value
2022-12-27T00:00:34.659Z,112.53
2022-12-27T00:03:17.706Z,107.65
2022-12-27T00:06:01.277Z,127.45
2022-12-27T00:08:43.866Z,116.10
2022-12-27T00:11:29.953Z,107.57
2022-12-27T00:14:18.084Z,136.23
2022-12-27T00:17:07.589Z,115.95
2022-12-27T00:20:00.547Z,112.60
2022-12-27T00:22:46.736Z,109.90
2022-12-27T00:25:34.921Z,99.40
2022-12-27T00:28:16.255Z,116.75
2022-12-27T00:31:03.041Z,103.47
2022-12-27T00:33:44.056Z,112.50
2022-12-27T00:36:27.089Z,103.85
2022-12-27T00:39:16.959Z,103.63
2022-12-27T00:42:07.575Z,89.72
2022-12-27T00:44:54.079Z,96.35
2022-12-27T00:47:41.634Z,87.93
2022-12-27T00:50:24.749Z,94.93
2022-12-27T00:53:15.285Z,119.57
2022-12-27T00:55:59.394Z,96.82
2022-12-27T00:58:41.953Z,97.30
2022-12-27T01:01:29.611Z,75.47
2022-12-27T01:04:11.227Z,84.45
2022-12-27T01:06:53.948Z,88.30
2022-12-27T01:09:37.793Z,95.00
2022-12-27T01:12:21.998Z,84.45
2022-12-27T01:15:24.886Z,100.20
2022-12-27T01:18:03.142Z,96.57
2022-12-27T01:20:40.756Z,98.88
2022-12-27T01:23:30.373Z,100.53
2022-12-27T01:26:20.128Z,81.68
2022-12-27T01:28:58.458Z,80.55
2022-12-27T01:31:31.573Z,75.82
2022-12-27T01:34:12.772Z,80.72
2022-12-27T01:36:58.464Z,81.03
2022-12-27T01:39:40.829Z,94.38
2022-12-27T01:42:41.577Z,92.70
2022-12-27T01:45:33.202Z,86.45
2022-12-27T01:48:18.003Z,86.00
2022-12-27T01:51:02.258Z,80.38
2022-12-27T01:53:43.119Z,95.20
2022-12-27T01:56:24.463Z,81.55
2022-12-27T01:59:10.619Z,74.60
2022-12-27T02:02:01.799Z,73.78
2022-12-27T02:04:42.329Z,87.97
2022-12-27T02:07:24.234Z,82.72
2022-12-27T02:10:07.843Z,81.05
2022-12-27T02:12:41.093Z,77.22
2022-12-27T02:15:28.432Z,76.80
2022-12-27T02:18:09.079Z,76.22
2022-12-27T02:21:12.329Z,73.53
2022-12-27T02:24:13.619Z,77.63
2022-12-27T02:27:09.790Z,80.60
2022-12-27T02:29:54.111Z,89.18
2022-12-27T02:32:39.924Z,82.53
2022-12-27T02:35:29.069Z,86.32
2022-12-27T02:38:18.335Z,84.38
2022-12-27T02:41:09.198Z,101.78
2022-12-27T02:44:03.515Z,97.68
2022-12-27T02:46:59.929Z,91.53
2022-12-27T02:50:00.606Z,85.80
2022-12-27T02:53:09.557Z,83.95
2022-12-27T02:56:43.255Z,92.60
2022-12-27T03:00:05.999Z,84.50
2022-12-27T03:03:26.745Z,78.47
2022-12-27T03:06:58.534Z,85.00
2022-12-27T03:10:22.119Z,79.10
2022-12-27T03:13:38.665Z,71.82
2022-12-27T03:16:45.888Z,73.65
2022-12-27T03:20:00.345Z,67.88
2022-12-27T03:22:58.446Z,62.33
2022-12-27T03:25:42.505Z,44.33
2022-12-27T03:28:45.560Z,45.70
2022-12-27T03:31:47.839Z,48.25
2022-12-27T03:34:32.291Z,42.47
2022-12-27T03:37:34.789Z,47.67
2022-12-27T03:40:33.894Z,43.42
2022-12-27T03:43:19.436Z,43.97
2022-12-27T03:46:34.173Z,38.53
2022-12-27T03:49:31.810Z,34.75
2022-12-27T03:52:34.065Z,39.97
2022-12-27T03:55:18.483Z,39.42
2022-12-27T03:57:48.807Z,31.02
2022-12-27T04:00:27.562Z,30.83
2022-12-27T04:03:08.632Z,27.25
2022-12-27T04:05:52.287Z,21.80
2022-12-27T04:08:50.513Z,17.88
2022-12-27T04:11:41.284Z,12.00
2022-12-27T04:14:42.252Z,8.52
2022-12-27T04:17:36.333Z,9.60
2022-12-27T04:20:41.656Z,6.45
2022-12-27T04:23:38.383Z,4.63
2022-12-27T04:26:32.718Z,5.50
2022-12-27T04:32:28.654Z,5.35
2022-12-27T04:35:09.660Z,5.50
2022-12-27T04:37:52.694Z,4.85
2022-12-27T04:40:49.258Z,5.30
2022-12-27T04:43:56.597Z,5.50
2022-12-27T04:46:51.146Z,5.38
2022-12-27T04:49:45.121Z,6.10
2022-12-27T04:52:47.013Z,6.15
2022-12-27T04:55:26.926Z,4.97
2022-12-27T04:58:13.235Z,4.05
2022-12-27T05:01:14.148Z,4.93
2022-12-27T05:04:02.471Z,6.05
2022-12-27T05:06:46.290Z,4.97
2022-12-27T05:09:39.375Z,3.92
2022-12-27T05:12:39.674Z,4.18
2022-12-27T05:15:32.305Z,3.78
2022-12-27T05:18:18.861Z,4.20
2022-12-27T05:21:07.075Z,6.20
2022-12-27T05:24:06.019Z,4.53
2022-12-27T05:26:44.955Z,4.78
2022-12-27T05:29:30.913Z,5.40
2022-12-27T05:32:24.223Z,7.72
2022-12-27T05:35:01.961Z,6.07
2022-12-27T05:37:54.738Z,7.05
2022-12-27T05:40:31.007Z,9.43
2022-12-27T05:43:15.925Z,9.05
2022-12-27T05:46:01.553Z,9.98
2022-12-27T05:48:41.398Z,11.05
2022-12-27T05:51:24.860Z,13.38
2022-12-27T05:54:05.485Z,11.23
2022-12-27T05:56:41.345Z,8.23
2022-12-27T05:59:19.017Z,8.10
2022-12-27T06:01:54.486Z,8.98
2022-12-27T06:04:44.390Z,8.18
2022-12-27T06:07:22.622Z,6.68
2022-12-27T06:10:07.538Z,7.15
2022-12-27T06:12:48.897Z,7.38
2022-12-27T06:15:26.187Z,8.15
2022-12-27T06:18:17.908Z,7.25
2022-12-27T06:21:04.953Z,8.60
2022-12-27T06:23:49.368Z,10.02
2022-12-27T06:26:29.587Z,11.77
2022-12-27T06:29:11.714Z,9.85
2022-12-27T06:31:51.027Z,11.10
2022-12-27T06:34:29.813Z,10.18
2022-12-27T06:37:14.031Z,10.88
2022-12-27T06:39:54.130Z,10.02
2022-12-27T06:42:32.006Z,11.30
2022-12-27T06:45:12.900Z,9.45
2022-12-27T06:47:49.477Z,9.77
2022-12-27T06:50:36.663Z,9.80
2022-12-27T06:53:31.606Z,9.73
2022-12-27T06:56:18.463Z,9.63
2022-12-27T06:58:57.311Z,12.32
2022-12-27T07:01:43.980Z,14.73
2022-12-27T07:04:24.958Z,11.77
2022-12-27T07:07:15.879Z,14.88
2022-12-27T07:09:59.531Z,17.63
2022-12-27T07:12:39.487Z,10.80
2022-12-27T07:15:19.798Z,12.05
2022-12-27T07:18:00.451Z,10.88
2022-12-27T07:20:54.970Z,8.10
2022-12-27T07:23:58.210Z,8.40
2022-12-27T07:26:49.488Z,8.73
2022-12-27T07:29:33.395Z,9.95
2022-12-27T07:32:11.999Z,9.10
2022-12-27T07:34:52.414Z,10.80
2022-12-27T07:37:27.774Z,11.00
2022-12-27T07:40:08.376Z,12.23
2022-12-27T07:42:46.944Z,7.72
2022-12-27T07:45:22.234Z,8.23
2022-12-27T07:48:12.769Z,6.93
2022-12-27T07:51:01.903Z,7.10
2022-12-27T07:53:42.592Z,8.70
2022-12-27T07:56:26.649Z,7.82
2022-12-27T07:59:17.591Z,4.78
2022-12-27T08:02:08.013Z,5.03
2022-12-27T08:04:46.901Z,5.22
2022-12-27T08:07:28.894Z,4.00
2022-12-27T08:10:09.636Z,5.13
2022-12-27T08:12:47.951Z,4.88
2022-12-27T08:15:34.035Z,5.25
2022-12-27T08:18:12.168Z,4.90
2022-12-27T08:20:56.733Z,6.05
2022-12-27T08:23:46.573Z,4.82
2022-12-27T08:26:33.447Z,5.50
2022-12-27T08:29:11.311Z,3.50
2022-12-27T08:32:02.177Z,4.25
2022-12-27T08:34:40.147Z,5.38
2022-12-27T08:37:38.717Z,5.22
2022-12-27T08:40:18.202Z,5.47
2022-12-27T08:42:59.117Z,6.35
2022-12-27T08:45:43.498Z,3.78
2022-12-27T08:48:40.729Z,3.22
2022-12-27T08:51:34.392Z,3.13
2022-12-27T08:54:21.223Z,3.42
2022-12-27T08:56:59.926Z,3.33
2022-12-27T08:59:40.750Z,3.25
2022-12-27T09:02:29.018Z,3.03
2022-12-27T09:05:18.650Z,3.22
2022-12-27T09:07:58.747Z,2.88
2022-12-27T09:10:40.921Z,4.80
2022-12-27T09:13:16.135Z,3.47
2022-12-27T09:16:01.904Z,2.30
2022-12-27T09:18:48.435Z,5.10
2022-12-27T09:21:28.076Z,3.13
2022-12-27T09:24:08.396Z,2.45
2022-12-27T09:26:52.259Z,2.75
2022-12-27T09:29:32.903Z,6.68
2022-12-27T09:32:29.906Z,3.88
2022-12-27T09:35:16.198Z,2.75
2022-12-27T09:37:55.935Z,2.60
2022-12-27T09:40:37.479Z,2.30
2022-12-27T09:43:27.322Z,2.75
2022-12-27T09:46:09.118Z,2.58
2022-12-27T09:48:52.122Z,9.43
2022-12-27T09:51:57.600Z,2.85
2022-12-27T09:54:50.878Z,2.63
2022-12-27T09:57:34.206Z,5.75
2022-12-27T10:00:12.259Z,2.92
2022-12-27T10:02:58.940Z,2.83
2022-12-27T10:05:56.644Z,2.55
2022-12-27T10:08:56.554Z,3.15
2022-12-27T10:12:07.817Z,2.10
2022-12-27T10:15:08.588Z,2.72
2022-12-27T10:18:16.097Z,3.13
2022-12-27T10:21:29.249Z,3.53
2022-12-27T10:24:08.436Z,5.18
2022-12-27T10:26:50.597Z,3.10
2022-12-27T10:29:34.048Z,4.50
2022-12-27T10:35:00.255Z,3.25
2022-12-27T10:37:43.884Z,3.60
2022-12-27T10:40:34.351Z,4.30
2022-12-27T10:43:22.319Z,2.53
2022-12-27T10:46:28.936Z,2.95
2022-12-27T10:49:31.329Z,3.10
2022-12-27T10:52:20.836Z,2.47
2022-12-27T10:55:05.317Z,3.17
2022-12-27T10:57:51.834Z,7.55
2022-12-27T11:00:37.083Z,4.13
2022-12-27T11:03:26.331Z,2.97
2022-12-27T11:06:17.999Z,2.92
2022-12-27T11:09:03.314Z,3.72
2022-12-27T11:11:43.862Z,2.92
2022-12-27T11:14:29.906Z,5.32
2022-12-27T11:17:26.844Z,2.88
2022-12-27T11:20:32.881Z,3.28
2022-12-27T11:23:25.064Z,2.63
2022-12-27T11:26:20.066Z,3.50
2022-12-27T11:29:05.021Z,3.45
2022-12-27T11:31:48.632Z,2.88
2022-12-27T11:34:25.910Z,2.45
2022-12-27T11:37:23.920Z,2.95
2022-12-27T11:40:30.783Z,7.78
2022-12-27T11:43:24.927Z,3.50
2022-12-27T11:48:49.424Z,9.40
2022-12-27T11:52:02.176Z,26.35
2022-12-27T11:55:30.825Z,5.82
2022-12-27T11:58:28.418Z,9.80
2022-12-27T12:01:46.902Z,20.27
2022-12-27T12:04:59.599Z,12.10
2022-12-27T12:07:40.776Z,11.27
2022-12-27T12:10:46.331Z,13.55
2022-12-27T12:13:42.745Z,12.48
2022-12-27T12:16:52.009Z,9.68
2022-12-27T12:19:41.706Z,12.15
2022-12-27T12:23:08.760Z,10.13
2022-12-27T12:26:09.811Z,6.72
2022-12-27T12:32:53.509Z,8.10
2022-12-27T12:35:50.941Z,15.95
2022-12-27T12:38:40.888Z,11.00
2022-12-27T12:41:43.205Z,16.77
2022-12-27T12:44:47.014Z,3.83
2022-12-27T12:47:47.712Z,7.75
2022-12-27T12:50:33.213Z,17.95
2022-12-27T12:53:36.834Z,4.95
2022-12-27T12:56:28.174Z,5.63
2022-12-27T12:59:50.808Z,9.88
2022-12-27T13:02:46.728Z,12.23
2022-12-27T13:05:58.231Z,11.53
2022-12-27T13:08:59.748Z,12.38
2022-12-27T13:11:57.105Z,6.30
2022-12-27T13:14:55.287Z,6.80
2022-12-27T13:17:52.882Z,13.27
2022-12-27T13:20:53.854Z,6.90
2022-12-27T13:24:13.413Z,5.75
2022-12-27T13:27:18.450Z,27.85
2022-12-27T13:30:20.361Z,11.77
2022-12-27T13:33:25.227Z,47.47
2022-12-27T13:36:20.856Z,39.88
2022-12-27T13:39:15.492Z,26.60
2022-12-27T13:42:23.065Z,29.90
2022-12-27T13:45:36.637Z,49.53
2022-12-27T13:49:01.541Z,9.77
2022-12-27T13:52:02.394Z,7.88
2022-12-27T13:55:04.517Z,7.43
2022-12-27T13:58:12.453Z,6.22
2022-12-27T14:01:09.848Z,6.10
2022-12-27T14:04:05.639Z,24.80
2022-12-27T14:07:04.688Z,9.00
2022-12-27T14:10:16.394Z,36.08
2022-12-27T14:13:12.029Z,29.27
2022-12-27T14:16:30.536Z,15.23
2022-12-27T14:19:46.602Z,27.95
2022-12-27T14:23:18.179Z,14.95
2022-12-27T14:26:37.668Z,39.83
2022-12-27T14:29:37.137Z,18.50
2022-12-27T14:32:36.992Z,9.02
2022-12-27T14:35:42.210Z,8.18
2022-12-27T14:38:24.143Z,12.27
2022-12-27T14:41:42.922Z,20.45
2022-12-27T14:44:54.224Z,56.38
2022-12-27T14:47:42.753Z,56.38
2022-12-27T14:50:15.438Z,17.40
2022-12-27T14:53:21.858Z,31.02
2022-12-27T14:56:34.632Z,37.78
2022-12-27T14:59:52.857Z,53.80
2022-12-27T15:03:05.323Z,40.78
2022-12-27T15:06:20.525Z,14.93
2022-12-27T15:09:16.274Z,11.02
2022-12-27T15:12:24.578Z,10.48
2022-12-27T15:15:22.755Z,6.05
2022-12-27T15:18:23.143Z,11.55
2022-12-27T15:21:25.744Z,8.75
2022-12-27T15:24:02.683Z,10.90
2022-12-27T15:26:49.302Z,10.82
2022-12-27T15:29:42.347Z,10.73
2022-12-27T15:33:11.864Z,8.18
2022-12-27T15:35:55.231Z,12.70
2022-12-27T15:38:54.014Z,6.75
2022-12-27T15:41:51.655Z,13.02
2022-12-27T15:44:42.893Z,12.45
2022-12-27T15:47:43.581Z,9.35
2022-12-27T15:50:30.416Z,8.30
2022-12-27T15:53:29.741Z,7.28
2022-12-27T15:56:30.218Z,9.20
2022-12-27T15:59:51.903Z,8.68
2022-12-27T16:02:53.686Z,5.45
2022-12-27T16:05:52.445Z,11.60
2022-12-27T16:08:37.883Z,7.03
2022-12-27T16:11:20.131Z,15.05
2022-12-27T16:14:38.661Z,11.38
2022-12-27T16:17:36.153Z,9.55
2022-12-27T16:20:28.093Z,8.93
2022-12-27T16:23:08.223Z,9.90
2022-12-27T16:25:49.633Z,9.98
2022-12-27T16:28:39.486Z,13.25
2022-12-27T16:31:20.155Z,12.18
2022-12-27T16:33:55.093Z,9.38
2022-12-27T16:36:32.212Z,7.50
2022-12-27T16:39:35.993Z,7.63
2022-12-27T16:42:14.968Z,11.57
2022-12-27T16:45:29.944Z,10.98
2022-12-27T16:48:33.880Z,15.48
2022-12-27T16:51:16.915Z,17.67
2022-12-27T16:54:24.734Z,10.87
2022-12-27T16:57:33.136Z,12.15
2022-12-27T17:00:43.385Z,9.35
2022-12-27T17:03:28.530Z,7.75
2022-12-27T17:06:33.075Z,14.10
2022-12-27T17:09:21.539Z,13.75
2022-12-27T17:12:15.018Z,11.30
2022-12-27T17:15:07.726Z,12.23
2022-12-27T17:17:57.075Z,20.80
2022-12-27T17:20:35.633Z,15.82
2022-12-27T17:23:08.895Z,15.63
2022-12-27T17:26:00.793Z,26.25
2022-12-27T17:28:42.376Z,19.95
2022-12-27T17:32:11.061Z,24.30
2022-12-27T17:35:24.445Z,17.23
2022-12-27T17:38:25.559Z,16.10
2022-12-27T17:41:50.350Z,21.17
2022-12-27T17:44:59.196Z,22.63
2022-12-27T17:47:43.187Z,24.00
2022-12-27T17:50:24.230Z,22.23
2022-12-27T17:53:45.128Z,20.50
2022-12-27T17:56:41.571Z,26.55
2022-12-27T17:59:18.662Z,29.80
2022-12-27T18:02:33.483Z,21.75
2022-12-27T18:05:17.657Z,16.65
2022-12-27T18:08:08.611Z,21.80
2022-12-27T18:10:49.654Z,10.95
2022-12-27T18:13:33.950Z,14.82
2022-12-27T18:16:27.681Z,12.25
2022-12-27T18:19:06.658Z,26.17
2022-12-27T18:21:46.090Z,18.67
2022-12-27T18:24:44.761Z,16.25
2022-12-27T18:27:31.966Z,13.05
2022-12-27T18:30:10.504Z,17.52
2022-12-27T18:32:47.878Z,10.77
2022-12-27T18:35:29.773Z,16.70
2022-12-27T18:38:02.300Z,20.85
2022-12-27T18:40:38.944Z,17.27
2022-12-27T18:43:19.271Z,26.70
2022-12-27T18:46:09.557Z,23.60
2022-12-27T18:48:49.158Z,23.60
2022-12-27T18:51:39.868Z,29.20
2022-12-27T18:54:38.625Z,38.70
2022-12-27T18:57:35.290Z,24.15
2022-12-27T19:00:30.684Z,26.58
2022-12-27T19:03:21.830Z,20.48
2022-12-27T19:06:15.522Z,23.27
2022-12-27T19:09:01.982Z,24.73
2022-12-27T19:11:47.262Z,29.88
2022-12-27T19:14:25.935Z,53.10
2022-12-27T19:17:11.091Z,47.03
2022-12-27T19:19:54.278Z,49.25
2022-12-27T19:22:55.337Z,38.90
2022-12-27T19:25:37.520Z,67.30
2022-12-27T19:28:42.316Z,70.07
2022-12-27T19:31:32.208Z,75.20
2022-12-27T19:34:14.566Z,103.57
2022-12-27T19:36:54.350Z,108.93
2022-12-27T19:39:33.451Z,132.45
2022-12-27T19:42:16.107Z,126.80
2022-12-27T19:44:58.707Z,113.28
2022-12-27T19:47:41.340Z,113.82
2022-12-27T19:50:20.667Z,88.53
2022-12-27T19:53:03.494Z,75.55
2022-12-27T19:55:41.714Z,62.67
2022-12-27T19:58:27.410Z,57.42
2022-12-27T20:01:08.883Z,78.28
2022-12-27T20:03:46.747Z,70.00
2022-12-27T20:06:28.481Z,83.25
2022-12-27T20:09:06.246Z,68.53
2022-12-27T20:11:49.686Z,70.53
2022-12-27T20:14:41.139Z,71.43
2022-12-27T20:17:24.560Z,77.85
2022-12-27T20:20:05.330Z,77.88
2022-12-27T20:23:04.156Z,85.95
2022-12-27T20:25:50.882Z,79.57
2022-12-27T20:28:31.524Z,70.30
2022-12-27T20:31:22.937Z,58.05
2022-12-27T20:34:06.767Z,53.25
2022-12-27T20:36:44.818Z,51.05
2022-12-27T20:39:25.219Z,44.13
2022-12-27T20:42:03.601Z,52.17
2022-12-27T20:44:42.262Z,43.95
2022-12-27T20:47:31.635Z,43.45
2022-12-27T20:50:04.518Z,46.72
2022-12-27T20:52:50.917Z,49.00
2022-12-27T20:55:27.107Z,77.25
2022-12-27T20:58:09.091Z,100.25
2022-12-27T21:00:56.810Z,97.10
2022-12-27T21:03:40.328Z,129.82
2022-12-27T21:06:28.544Z,88.28
2022-12-27T21:09:09.950Z,85.57
2022-12-27T21:11:50.815Z,126.60
2022-12-27T21:14:41.854Z,140.95
2022-12-27T21:17:19.359Z,101.57
2022-12-27T21:20:11.217Z,148.32
2022-12-27T21:22:53.371Z,135.02
2022-12-27T21:25:34.611Z,132.50
2022-12-27T21:28:15.100Z,86.78
2022-12-27T21:31:03.640Z,64.53
2022-12-27T21:33:40.850Z,158.80
2022-12-27T21:36:24.622Z,184.52
2022-12-27T21:39:05.236Z,165.35
2022-12-27T21:41:56.601Z,149.07
2022-12-27T21:44:39.022Z,123.47
2022-12-27T21:47:22.705Z,99.45
2022-12-27T21:52:38.343Z,79.10
2022-12-27T21:55:13.901Z,91.47
2022-12-27T21:57:57.201Z,85.00
2022-12-27T22:00:35.306Z,84.13
2022-12-27T22:03:10.871Z,73.88
2022-12-27T22:05:46.873Z,67.68
2022-12-27T22:08:23.416Z,56.35
2022-12-27T22:11:04.049Z,50.10
2022-12-27T22:13:44.367Z,56.20
2022-12-27T22:16:29.027Z,52.03
2022-12-27T22:19:04.396Z,50.85
2022-12-27T22:21:50.028Z,51.10
2022-12-27T22:24:30.404Z,49.45
2022-12-27T22:27:18.541Z,61.58
2022-12-27T22:29:53.792Z,56.40
2022-12-27T22:32:40.313Z,61.78
2022-12-27T22:35:18.736Z,67.95
2022-12-27T22:37:54.322Z,62.88
2022-12-27T22:40:45.793Z,66.20
2022-12-27T22:43:33.800Z,52.75
2022-12-27T22:46:27.353Z,54.95
2022-12-27T22:49:11.741Z,45.88
2022-12-27T22:51:53.617Z,47.58
2022-12-27T22:55:05.515Z,43.75
2022-12-27T22:57:32.568Z,50.08
2022-12-27T23:00:16.741Z,38.25
2022-12-27T23:02:55.485Z,43.55
2022-12-27T23:05:33.071Z,45.95
2022-12-27T23:08:11.092Z,40.42
2022-12-27T23:10:53.250Z,39.72
2022-12-27T23:13:37.362Z,38.22
2022-12-27T23:16:28.213Z,35.60
2022-12-27T23:19:05.575Z,37.60
2022-12-27T23:22:01.597Z,37.80
2022-12-27T23:24:47.086Z,38.28
2022-12-27T23:27:36.513Z,37.28
2022-12-27T23:30:17.222Z,36.78
2022-12-27T23:32:54.750Z,37.30
2022-12-27T23:35:35.163Z,33.95
2022-12-27T23:38:21.838Z,40.13
2022-12-27T23:41:04.675Z,37.25
2022-12-27T23:43:53.927Z,38.90
2022-12-27T23:46:39.850Z,37.10
2022-12-27T23:49:17.663Z,31.48
2022-12-27T23:51:55.362Z,44.75
2022-12-27T23:54:35.330Z,44.17
2022-12-27T23:57:22.388Z,42.75
